createdAt,value
2022-09-07T00:01:31.555Z,8.60
2022-09-07T00:04:01.388Z,10.60
2022-09-07T00:06:28.207Z,10.77
2022-09-07T00:08:54.918Z,9.13
2022-09-07T00:11:21.561Z,8.57
2022-09-07T00:13:49.441Z,9.25
2022-09-07T00:16:21.699Z,12.57
2022-09-07T00:18:48.663Z,10.93
2022-09-07T00:21:16.887Z,9.00
2022-09-07T00:23:43.710Z,10.38
2022-09-07T00:26:17.486Z,12.82
2022-09-07T00:28:44.462Z,15.35
2022-09-07T00:31:13.638Z,13.13
2022-09-07T00:33:40.668Z,8.88
2022-09-07T00:36:07.328Z,9.45
2022-09-07T00:38:34.017Z,8.23
2022-09-07T00:41:00.678Z,10.57
2022-09-07T00:43:48.711Z,8.55
2022-09-07T00:46:26.420Z,8.65
2022-09-07T00:49:09.050Z,10.15
2022-09-07T00:51:59.233Z,10.32
2022-09-07T00:54:33.118Z,11.52
2022-09-07T00:56:59.745Z,9.43
2022-09-07T00:59:31.246Z,10.52
2022-09-07T01:01:57.948Z,8.82
2022-09-07T01:04:24.660Z,9.70
2022-09-07T01:06:51.541Z,8.55
2022-09-07T01:09:22.919Z,8.50
2022-09-07T01:11:51.327Z,8.52
2022-09-07T01:14:35.596Z,8.43
2022-09-07T01:17:20.311Z,8.10
2022-09-07T01:20:05.552Z,9.90
2022-09-07T01:25:37.336Z,11.02
2022-09-07T01:28:24.204Z,7.85
2022-09-07T01:30:58.770Z,9.57
2022-09-07T01:33:48.727Z,8.63
2022-09-07T01:36:36.740Z,9.50
2022-09-07T01:39:04.487Z,12.13
2022-09-07T01:41:39.326Z,8.93
2022-09-07T01:44:31.162Z,7.78
2022-09-07T01:47:15.994Z,8.35
2022-09-07T01:49:45.639Z,10.35
2022-09-07T01:52:19.902Z,7.95
2022-09-07T01:54:48.640Z,12.50
2022-09-07T01:57:19.077Z,10.68
2022-09-07T02:00:04.954Z,14.65
2022-09-07T02:02:34.615Z,9.80
2022-09-07T02:05:04.309Z,8.35
2022-09-07T02:07:35.537Z,7.82
2022-09-07T02:10:14.722Z,9.75
2022-09-07T02:12:48.341Z,8.98
2022-09-07T02:15:39.087Z,7.78
2022-09-07T02:18:06.006Z,9.00
2022-09-07T02:20:34.940Z,9.40
2022-09-07T02:23:05.131Z,7.78
2022-09-07T02:25:37.858Z,8.43
2022-09-07T02:28:08.003Z,9.40
2022-09-07T02:30:35.153Z,8.23
2022-09-07T02:33:01.778Z,14.82
2022-09-07T02:35:28.510Z,10.50
2022-09-07T02:37:55.174Z,10.13
2022-09-07T02:40:21.868Z,8.40
2022-09-07T02:42:48.552Z,8.00
2022-09-07T02:45:15.192Z,8.82
2022-09-07T02:48:30.204Z,8.10
2022-09-07T02:51:18.570Z,10.27
2022-09-07T02:54:08.808Z,7.93
2022-09-07T02:56:50.512Z,8.88
2022-09-07T02:59:38.709Z,11.25
2022-09-07T03:02:10.172Z,11.30
2022-09-07T03:04:51.222Z,10.00
2022-09-07T03:07:20.955Z,10.88
2022-09-07T03:09:50.222Z,8.60
2022-09-07T03:12:17.366Z,9.52
2022-09-07T03:14:44.112Z,7.97
2022-09-07T03:17:10.792Z,7.53
2022-09-07T03:19:37.741Z,9.90
2022-09-07T03:22:05.073Z,10.50
2022-09-07T03:24:31.754Z,9.98
2022-09-07T03:26:58.607Z,10.25
2022-09-07T03:29:26.217Z,8.07
2022-09-07T03:31:53.261Z,17.13
2022-09-07T03:34:19.908Z,9.60
2022-09-07T03:36:46.659Z,10.35
2022-09-07T03:39:14.177Z,8.40
2022-09-07T03:41:40.960Z,7.70
2022-09-07T03:44:07.764Z,7.63
2022-09-07T03:46:34.605Z,8.77
2022-09-07T03:49:01.496Z,8.60
2022-09-07T03:51:31.451Z,8.50
2022-09-07T03:53:59.921Z,9.60
2022-09-07T03:56:26.773Z,8.10
2022-09-07T03:58:54.313Z,8.45
2022-09-07T04:01:22.792Z,8.18
2022-09-07T04:03:49.491Z,9.73
2022-09-07T04:06:16.299Z,8.75
2022-09-07T04:08:43.219Z,10.73
2022-09-07T04:11:16.132Z,10.23
2022-09-07T04:13:43.214Z,10.85
2022-09-07T04:16:23.438Z,8.60
2022-09-07T04:18:50.527Z,8.88
2022-09-07T04:21:23.428Z,11.25
2022-09-07T04:23:50.192Z,9.50
2022-09-07T04:26:18.895Z,10.38
2022-09-07T04:28:45.788Z,8.82
2022-09-07T04:31:16.329Z,8.82
2022-09-07T04:33:44.217Z,8.95
2022-09-07T04:36:11.117Z,7.25
2022-09-07T04:38:40.010Z,8.40
2022-09-07T04:41:09.504Z,7.88
2022-09-07T04:43:37.136Z,11.98
2022-09-07T04:46:05.088Z,8.40
2022-09-07T04:48:31.955Z,7.57
2022-09-07T04:51:08.933Z,6.82
2022-09-07T04:53:36.386Z,7.43
2022-09-07T04:56:03.256Z,6.55
2022-09-07T04:58:30.152Z,7.53
2022-09-07T05:01:04.458Z,6.88
2022-09-07T05:03:31.545Z,11.90
2022-09-07T05:06:01.139Z,7.22
2022-09-07T05:08:28.008Z,6.60
2022-09-07T05:10:55.148Z,7.50
2022-09-07T05:13:21.838Z,7.03
2022-09-07T05:15:48.501Z,9.90
2022-09-07T05:18:15.218Z,8.15
2022-09-07T05:20:41.972Z,6.00
2022-09-07T05:23:09.183Z,6.82
2022-09-07T05:25:36.085Z,6.88
2022-09-07T05:28:03.902Z,6.68
2022-09-07T05:33:17.312Z,8.52
2022-09-07T05:35:43.991Z,8.10
2022-09-07T05:38:10.627Z,8.13
2022-09-07T05:40:40.689Z,10.32
2022-09-07T05:43:09.919Z,8.95
2022-09-07T05:45:36.677Z,8.98
2022-09-07T05:48:03.379Z,8.82
2022-09-07T05:50:30.034Z,11.18
2022-09-07T05:52:56.711Z,10.35
2022-09-07T05:56:05.132Z,9.45
2022-09-07T05:58:57.607Z,8.45
2022-09-07T06:01:24.240Z,8.35
2022-09-07T06:03:50.856Z,9.48
2022-09-07T06:06:19.063Z,9.02
2022-09-07T06:08:47.497Z,10.30
2022-09-07T06:11:16.690Z,8.35
2022-09-07T06:13:43.361Z,8.32
2022-09-07T06:16:10.858Z,4.15
2022-09-07T06:18:42.440Z,6.88
2022-09-07T06:21:13.597Z,5.57
2022-09-07T06:23:40.895Z,6.18
2022-09-07T06:26:07.913Z,5.07
2022-09-07T06:28:36.200Z,5.65
2022-09-07T06:31:04.417Z,5.47
2022-09-07T06:33:31.100Z,5.20
2022-09-07T06:35:58.787Z,5.88
2022-09-07T06:38:29.976Z,5.93
2022-09-07T06:43:56.265Z,5.03
2022-09-07T06:49:10.009Z,5.45
2022-09-07T06:51:36.700Z,5.35
2022-09-07T06:56:52.226Z,4.85
2022-09-07T06:59:19.204Z,5.18
2022-09-07T07:01:46.446Z,6.43
2022-09-07T07:04:13.429Z,6.00
2022-09-07T07:06:40.291Z,6.70
2022-09-07T07:09:08.386Z,5.60
2022-09-07T07:11:37.215Z,8.70
2022-09-07T07:14:04.012Z,6.03
2022-09-07T07:16:30.786Z,6.55
2022-09-07T07:18:58.284Z,7.00
2022-09-07T07:21:24.929Z,7.47
2022-09-07T07:23:52.410Z,6.60
2022-09-07T07:26:20.968Z,6.53
2022-09-07T07:29:06.567Z,6.88
2022-09-07T07:31:34.693Z,8.65
2022-09-07T07:34:01.458Z,6.32
2022-09-07T07:36:28.293Z,5.93
2022-09-07T07:44:14.517Z,6.38
2022-09-07T07:46:41.533Z,6.38
2022-09-07T07:49:08.222Z,8.20
2022-09-07T07:52:49.909Z,7.60
2022-09-07T07:54:21.569Z,7.68
2022-09-07T07:56:48.228Z,6.30
2022-09-07T07:59:15.906Z,5.95
2022-09-07T08:01:43.971Z,7.45
2022-09-07T08:04:10.735Z,5.50
2022-09-07T08:06:38.145Z,5.20
2022-09-07T08:09:04.723Z,5.28
2022-09-07T08:11:31.714Z,6.35
2022-09-07T08:14:00.366Z,7.05
2022-09-07T08:16:27.106Z,6.85
2022-09-07T08:18:53.847Z,5.75
2022-09-07T08:21:20.479Z,5.10
2022-09-07T08:23:47.100Z,6.97
2022-09-07T08:26:13.741Z,5.07
2022-09-07T08:28:41.288Z,6.43
2022-09-07T08:31:09.190Z,5.22
2022-09-07T08:33:39.050Z,5.90
2022-09-07T08:36:07.786Z,5.47
2022-09-07T08:38:35.223Z,5.25
2022-09-07T08:41:02.068Z,5.18
2022-09-07T08:43:51.195Z,4.60
2022-09-07T08:46:29.796Z,5.03
2022-09-07T08:48:56.527Z,5.13
2022-09-07T08:52:06.125Z,4.80
2022-09-07T08:54:33.195Z,4.30
2022-09-07T08:59:51.914Z,7.43
2022-09-07T09:02:40.275Z,8.55
2022-09-07T09:05:21.209Z,6.00
2022-09-07T09:07:55.251Z,4.10
2022-09-07T09:11:09.686Z,5.13
2022-09-07T09:13:59.842Z,4.60
2022-09-07T09:16:54.273Z,6.15
2022-09-07T09:19:55.671Z,4.43
2022-09-07T09:22:23.976Z,5.70
2022-09-07T09:25:13.678Z,4.50
2022-09-07T09:27:40.503Z,4.25
2022-09-07T09:30:14.869Z,5.65
2022-09-07T09:32:43.238Z,3.95
2022-09-07T09:35:36.287Z,7.20
2022-09-07T09:38:03.811Z,5.70
2022-09-07T09:40:32.297Z,4.40
2022-09-07T09:43:24.029Z,6.07
2022-09-07T09:48:42.141Z,4.68
2022-09-07T09:54:20.935Z,6.90
2022-09-07T09:56:49.070Z,6.15
2022-09-07T10:05:39.833Z,5.53
2022-09-07T10:08:18.161Z,6.40
2022-09-07T10:11:19.872Z,5.78
2022-09-07T10:13:57.874Z,5.82
2022-09-07T10:16:39.412Z,6.20
2022-09-07T10:19:06.015Z,9.05
2022-09-07T10:21:32.855Z,4.97
2022-09-07T10:24:05.281Z,6.00
2022-09-07T10:26:36.335Z,5.68
2022-09-07T10:29:26.207Z,5.18
2022-09-07T10:32:18.517Z,5.13
2022-09-07T10:35:09.869Z,5.80
2022-09-07T10:37:45.583Z,4.30
2022-09-07T10:40:44.461Z,4.28
2022-09-07T10:43:21.868Z,5.28
2022-09-07T10:52:49.339Z,6.05
2022-09-07T10:55:31.879Z,4.78
2022-09-07T10:58:17.626Z,4.28
2022-09-07T11:01:07.619Z,4.95
2022-09-07T11:04:14.337Z,7.63
2022-09-07T11:06:45.605Z,3.60
2022-09-07T11:09:41.540Z,4.50
2022-09-07T11:12:15.706Z,5.63
2022-09-07T11:14:46.315Z,3.95
2022-09-07T11:17:15.791Z,4.15
2022-09-07T11:19:50.294Z,4.05
2022-09-07T11:27:56.495Z,6.40
2022-09-07T11:30:35.771Z,4.43
2022-09-07T11:33:10.258Z,5.97
2022-09-07T11:35:45.280Z,6.68
2022-09-07T11:38:35.863Z,5.00
2022-09-07T11:41:02.791Z,4.50
2022-09-07T11:43:38.396Z,3.40
2022-09-07T11:46:14.986Z,5.35
2022-09-07T11:48:48.576Z,3.70
2022-09-07T11:51:24.745Z,3.30
2022-09-07T11:53:54.167Z,3.40
2022-09-07T11:56:28.478Z,3.85
2022-09-07T11:59:23.526Z,3.42
2022-09-07T12:02:48.438Z,3.92
2022-09-07T12:05:20.832Z,3.92
2022-09-07T12:08:45.975Z,3.50
2022-09-07T12:11:31.311Z,3.20
2022-09-07T12:14:39.376Z,3.92
2022-09-07T12:17:08.600Z,3.58
2022-09-07T12:19:35.256Z,3.40
2022-09-07T12:22:02.132Z,4.18
2022-09-07T12:24:42.153Z,4.75
2022-09-07T12:27:20.867Z,4.00
2022-09-07T12:30:11.327Z,4.70
2022-09-07T12:32:55.382Z,3.17
2022-09-07T12:35:28.850Z,4.00
2022-09-07T12:37:56.242Z,3.38
2022-09-07T12:40:28.995Z,3.65
2022-09-07T12:43:14.048Z,3.17
2022-09-07T12:45:40.586Z,4.78
2022-09-07T12:48:16.348Z,3.63
2022-09-07T12:51:59.696Z,3.35
2022-09-07T12:54:23.451Z,3.20
2022-09-07T13:00:05.666Z,3.40
2022-09-07T13:02:55.980Z,3.15
2022-09-07T13:05:29.306Z,3.33
2022-09-07T13:08:07.241Z,3.50
2022-09-07T13:10:36.741Z,3.72
2022-09-07T13:16:13.876Z,4.20
2022-09-07T13:18:42.528Z,4.40
2022-09-07T13:21:09.014Z,3.15
2022-09-07T13:23:39.609Z,3.72
2022-09-07T13:26:08.168Z,5.72
2022-09-07T13:28:47.507Z,3.65
2022-09-07T13:31:25.266Z,5.30
2022-09-07T13:33:52.787Z,3.25
2022-09-07T13:36:44.912Z,3.45
2022-09-07T13:39:15.943Z,3.55
2022-09-07T13:41:46.576Z,3.55
2022-09-07T13:44:32.530Z,4.72
2022-09-07T13:47:09.633Z,4.93
2022-09-07T13:49:51.340Z,3.92
2022-09-07T13:52:42.198Z,4.93
2022-09-07T13:55:33.764Z,3.75
2022-09-07T13:58:18.163Z,4.65
2022-09-07T14:00:55.520Z,3.60
2022-09-07T14:03:40.414Z,3.28
2022-09-07T14:06:21.935Z,3.15
2022-09-07T14:08:52.655Z,4.10
2022-09-07T14:11:21.009Z,4.00
2022-09-07T14:14:16.444Z,2.72
2022-09-07T14:17:02.710Z,4.18
2022-09-07T14:19:45.171Z,4.53
2022-09-07T14:22:18.874Z,5.78
2022-09-07T14:24:51.513Z,3.27
2022-09-07T14:27:21.220Z,3.30
2022-09-07T14:29:47.906Z,5.20
2022-09-07T14:32:20.443Z,4.47
2022-09-07T14:34:47.236Z,3.13
2022-09-07T14:37:17.734Z,3.42
2022-09-07T14:39:46.476Z,3.63
2022-09-07T14:42:15.482Z,5.10
2022-09-07T14:44:45.437Z,3.90
2022-09-07T14:47:29.425Z,3.35
2022-09-07T14:49:58.202Z,3.03
2022-09-07T14:52:40.680Z,3.92
2022-09-07T14:55:33.126Z,3.92
2022-09-07T14:58:14.960Z,3.60
2022-09-07T15:00:45.984Z,4.57
2022-09-07T15:03:42.412Z,3.70
2022-09-07T15:07:00.524Z,4.40
2022-09-07T15:08:57.715Z,4.30
2022-09-07T15:11:35.414Z,5.75
2022-09-07T15:14:08.646Z,3.95
2022-09-07T15:16:38.399Z,3.97
2022-09-07T15:19:17.252Z,4.28
2022-09-07T15:21:44.161Z,7.75
2022-09-07T15:24:10.901Z,7.90
2022-09-07T15:29:29.069Z,8.07
2022-09-07T15:32:03.528Z,7.20
2022-09-07T15:34:32.505Z,6.28
2022-09-07T15:37:01.032Z,7.80
2022-09-07T15:39:29.771Z,5.53
2022-09-07T15:41:57.293Z,5.22
2022-09-07T15:44:26.293Z,5.15
2022-09-07T15:49:47.425Z,5.45
2022-09-07T15:52:16.820Z,6.18
2022-09-07T15:54:43.928Z,5.80
2022-09-07T15:59:57.488Z,9.40
2022-09-07T16:05:11.086Z,6.03
2022-09-07T16:14:12.843Z,5.10
2022-09-07T16:19:27.753Z,5.68
2022-09-07T16:21:57.521Z,5.13
2022-09-07T16:24:24.598Z,6.63
2022-09-07T16:26:51.219Z,5.22
2022-09-07T16:29:17.979Z,5.28
2022-09-07T16:34:31.303Z,6.95
2022-09-07T16:36:57.992Z,9.55
2022-09-07T16:39:24.661Z,4.45
2022-09-07T16:41:51.260Z,7.47
2022-09-07T16:44:18.034Z,5.70
2022-09-07T16:46:44.621Z,6.68
2022-09-07T16:49:11.447Z,9.82
2022-09-07T16:51:38.434Z,7.38
2022-09-07T16:54:06.304Z,6.15
2022-09-07T16:56:38.241Z,6.05
2022-09-07T16:59:06.495Z,6.00
2022-09-07T17:01:34.693Z,5.40
2022-09-07T17:04:04.351Z,7.13
2022-09-07T17:06:33.383Z,5.65
2022-09-07T17:09:00.308Z,11.10
2022-09-07T17:11:29.602Z,7.68
2022-09-07T17:13:56.962Z,6.93
2022-09-07T17:16:29.984Z,9.57
2022-09-07T17:21:46.207Z,12.43
2022-09-07T17:24:13.096Z,6.85
2022-09-07T17:26:42.306Z,7.50
2022-09-07T17:29:09.111Z,7.07
2022-09-07T17:34:23.683Z,8.50
2022-09-07T17:36:50.697Z,9.93
2022-09-07T17:39:19.270Z,8.00
2022-09-07T17:41:47.768Z,6.55
2022-09-07T17:44:14.413Z,7.03
2022-09-07T17:46:41.024Z,6.38
2022-09-07T17:49:10.359Z,9.73
2022-09-07T17:51:37.131Z,8.48
2022-09-07T17:54:12.725Z,9.18
2022-09-07T17:56:41.003Z,10.73
2022-09-07T18:01:55.112Z,8.85
2022-09-07T18:04:21.858Z,9.35
2022-09-07T18:06:48.588Z,13.52
2022-09-07T18:09:15.308Z,9.55
2022-09-07T18:11:45.731Z,8.68
2022-09-07T18:14:14.545Z,10.55
2022-09-07T18:16:41.648Z,9.88
2022-09-07T18:19:08.709Z,10.13
2022-09-07T18:21:36.245Z,10.60
2022-09-07T18:24:05.109Z,9.88
2022-09-07T18:26:32.298Z,8.82
2022-09-07T18:29:18.798Z,8.80
2022-09-07T18:31:46.176Z,7.28
2022-09-07T18:34:12.974Z,6.90
2022-09-07T18:36:43.714Z,11.45
2022-09-07T18:39:10.924Z,7.65
2022-09-07T18:41:40.813Z,10.55
2022-09-07T18:45:27.296Z,8.30
2022-09-07T18:46:54.655Z,8.77
2022-09-07T18:49:21.270Z,9.73
2022-09-07T18:54:34.541Z,7.35
2022-09-07T18:57:01.175Z,7.38
2022-09-07T18:59:28.093Z,7.78
2022-09-07T19:02:01.315Z,8.23
2022-09-07T19:05:49.475Z,10.10
2022-09-07T19:07:17.113Z,7.82
2022-09-07T19:09:44.683Z,8.35
2022-09-07T19:12:11.294Z,7.85
2022-09-07T19:14:37.921Z,9.35
2022-09-07T19:17:04.781Z,8.73
2022-09-07T19:19:33.068Z,8.57
2022-09-07T19:22:01.589Z,8.35
2022-09-07T19:24:31.826Z,8.73
2022-09-07T19:27:00.665Z,10.52
2022-09-07T19:29:27.842Z,9.88
2022-09-07T19:32:07.685Z,9.88
2022-09-07T19:34:34.849Z,14.77
2022-09-07T19:37:02.040Z,11.65
2022-09-07T19:39:28.688Z,8.20
2022-09-07T19:41:55.502Z,11.40
2022-09-07T19:44:22.137Z,11.27
2022-09-07T19:46:49.042Z,11.70
2022-09-07T19:49:15.777Z,11.88
2022-09-07T19:51:42.599Z,10.65
2022-09-07T19:54:15.137Z,10.27
2022-09-07T19:56:42.821Z,10.60
2022-09-07T19:59:09.553Z,11.25
2022-09-07T20:01:36.343Z,8.27
2022-09-07T20:04:05.046Z,11.10
2022-09-07T20:06:35.069Z,12.70
2022-09-07T20:09:01.901Z,11.25
2022-09-07T20:11:31.282Z,12.20
2022-09-07T20:13:58.015Z,10.95
2022-09-07T20:16:24.934Z,9.45
2022-09-07T20:18:51.728Z,10.02
2022-09-07T20:21:20.636Z,9.20
2022-09-07T20:23:47.417Z,9.93
2022-09-07T20:26:15.381Z,11.13
2022-09-07T20:28:42.439Z,10.00
2022-09-07T20:31:16.199Z,10.15
2022-09-07T20:33:43.338Z,9.98
2022-09-07T20:36:12.518Z,13.20
2022-09-07T20:38:43.363Z,8.55
2022-09-07T20:41:14.050Z,9.55
2022-09-07T20:43:40.667Z,8.63
2022-09-07T20:46:09.778Z,9.68
2022-09-07T20:48:39.816Z,9.05
2022-09-07T20:51:09.578Z,8.65
2022-09-07T20:53:36.846Z,12.57
2022-09-07T20:56:19.589Z,13.48
2022-09-07T20:58:46.980Z,12.85
2022-09-07T21:01:15.118Z,8.90
2022-09-07T21:03:49.092Z,15.80
2022-09-07T21:06:16.286Z,11.00
2022-09-07T21:08:43.371Z,17.83
2022-09-07T21:11:15.210Z,12.95
2022-09-07T21:13:42.273Z,14.45
2022-09-07T21:16:10.708Z,13.25
2022-09-07T21:19:19.995Z,11.70
2022-09-07T21:21:46.591Z,9.63
2022-09-07T21:24:21.349Z,10.50
2022-09-07T21:26:48.297Z,12.95
2022-09-07T21:29:24.520Z,10.70
2022-09-07T21:31:52.915Z,18.27
2022-09-07T21:34:19.719Z,11.00
2022-09-07T21:36:46.363Z,10.70
2022-09-07T21:39:14.834Z,13.10
2022-09-07T21:41:42.128Z,10.55
2022-09-07T21:44:11.145Z,14.15
2022-09-07T21:46:37.790Z,11.68
2022-09-07T21:49:04.922Z,10.90
2022-09-07T21:51:32.008Z,10.35
2022-09-07T21:53:59.951Z,10.70
2022-09-07T21:56:28.826Z,17.10
2022-09-07T21:58:56.770Z,11.38
2022-09-07T22:01:23.931Z,14.57
2022-09-07T22:03:58.387Z,17.63
2022-09-07T22:06:25.295Z,10.95
2022-09-07T22:08:51.943Z,10.90
2022-09-07T22:11:20.352Z,13.23
2022-09-07T22:13:47.048Z,11.05
2022-09-07T22:16:14.075Z,12.13
2022-09-07T22:18:43.625Z,10.43
2022-09-07T22:21:15.374Z,12.43
2022-09-07T22:23:45.569Z,10.55
2022-09-07T22:26:12.531Z,10.68
2022-09-07T22:28:39.158Z,10.52
2022-09-07T22:31:08.732Z,10.55
2022-09-07T22:33:35.375Z,9.23
2022-09-07T22:36:18.327Z,10.07
2022-09-07T22:38:45.882Z,10.40
2022-09-07T22:41:14.512Z,10.77
2022-09-07T22:43:41.479Z,11.40
2022-09-07T22:51:37.778Z,12.10
2022-09-07T22:54:05.071Z,12.57
2022-09-07T22:56:32.454Z,17.08
2022-09-07T22:59:03.944Z,12.73
2022-09-07T23:01:30.957Z,11.93
2022-09-07T23:03:58.020Z,11.30
2022-09-07T23:06:26.418Z,9.18
2022-09-07T23:08:54.014Z,13.25
2022-09-07T23:11:20.872Z,15.15
2022-09-07T23:13:54.738Z,10.65
2022-09-07T23:16:21.719Z,12.70
2022-09-07T23:18:48.520Z,13.57
2022-09-07T23:21:15.182Z,13.18
2022-09-07T23:23:41.792Z,15.80
2022-09-07T23:26:29.152Z,13.00
2022-09-07T23:28:59.926Z,11.60
2022-09-07T23:31:26.961Z,10.55
2022-09-07T23:33:53.645Z,10.40
2022-09-07T23:36:20.364Z,10.70
2022-09-07T23:38:47.030Z,11.25
2022-09-07T23:41:14.270Z,15.00
2022-09-07T23:43:41.023Z,11.82
2022-09-07T23:46:07.717Z,10.23
2022-09-07T23:48:34.395Z,11.43
2022-09-07T23:51:01.028Z,12.18
2022-09-07T23:53:27.772Z,13.10
2022-09-07T23:55:54.569Z,11.40
2022-09-07T23:58:21.493Z,10.68
